createdAt,value
2022-09-28T00:01:22.001Z,62.52
2022-09-28T00:06:26.087Z,61.42
2022-09-28T00:11:29.366Z,61.10
2022-09-28T00:16:36.188Z,61.24
2022-09-28T00:21:40.046Z,60.69
2022-09-28T00:26:50.510Z,59.35
2022-09-28T00:32:02.637Z,65.87
2022-09-28T00:37:06.656Z,64.93
2022-09-28T00:42:11.718Z,64.45
2022-09-28T00:47:14.408Z,63.17
2022-09-28T00:52:25.607Z,62.61
2022-09-28T00:57:29.124Z,62.57
2022-09-28T01:02:32.265Z,62.85
2022-09-28T01:07:36.018Z,62.59
2022-09-28T01:12:38.759Z,62.83
2022-09-28T01:17:44.638Z,62.37
2022-09-28T01:23:02.587Z,61.48
2022-09-28T01:28:08.458Z,60.41
2022-09-28T01:33:14.335Z,57.93
2022-09-28T01:38:22.256Z,61.28
2022-09-28T01:43:26.855Z,67.15
2022-09-28T01:48:33.982Z,62.74
2022-09-28T01:53:39.355Z,61.05
2022-09-28T01:58:46.776Z,61.51
2022-09-28T02:03:53.571Z,61.62
2022-09-28T02:08:59.853Z,61.77
2022-09-28T02:14:05.219Z,62.12
2022-09-28T02:19:13.176Z,61.90
2022-09-28T02:24:21.588Z,61.78
2022-09-28T02:29:25.393Z,62.63
2022-09-28T02:34:28.094Z,62.82
2022-09-28T02:39:31.916Z,63.82
2022-09-28T02:44:44.859Z,64.77
2022-09-28T02:49:47.554Z,64.28
2022-09-28T02:54:50.461Z,63.99
2022-09-28T02:59:56.962Z,62.79
2022-09-28T03:05:18.292Z,62.55
2022-09-28T03:10:20.982Z,62.34
2022-09-28T03:15:30.745Z,62.74
2022-09-28T03:20:34.127Z,63.06
2022-09-28T03:25:36.867Z,62.99
2022-09-28T03:30:39.559Z,62.95
2022-09-28T03:35:42.793Z,62.77
2022-09-28T03:40:52.913Z,63.50
2022-09-28T03:45:57.115Z,63.40
2022-09-28T03:51:01.419Z,63.31
2022-09-28T03:56:08.722Z,64.01
2022-09-28T04:01:16.629Z,63.12
2022-09-28T04:06:20.093Z,63.85
2022-09-28T04:11:24.299Z,63.90
2022-09-28T04:16:27.449Z,63.75
2022-09-28T04:21:30.614Z,64.15
2022-09-28T04:26:33.312Z,63.07
2022-09-28T04:31:40.882Z,61.93
2022-09-28T04:36:45.201Z,63.45
2022-09-28T04:41:48.375Z,63.13
2022-09-28T04:46:51.072Z,62.90
2022-09-28T04:51:53.977Z,62.65
2022-09-28T04:56:57.392Z,62.46
2022-09-28T05:02:00.360Z,62.13
2022-09-28T05:07:03.202Z,62.30
2022-09-28T05:12:06.009Z,62.32
2022-09-28T05:17:10.240Z,62.06
2022-09-28T05:22:15.019Z,61.87
2022-09-28T05:27:17.680Z,61.32
2022-09-28T05:32:20.895Z,61.26
2022-09-28T05:37:23.590Z,60.99
2022-09-28T05:42:26.392Z,60.59
2022-09-28T05:47:29.499Z,60.68
2022-09-28T05:52:32.731Z,60.63
2022-09-28T05:57:35.410Z,60.48
2022-09-28T06:02:38.151Z,60.40
2022-09-28T06:07:41.121Z,60.42
2022-09-28T06:12:45.042Z,60.30
2022-09-28T06:17:48.152Z,59.82
2022-09-28T06:22:51.981Z,59.73
2022-09-28T06:27:55.706Z,59.84
2022-09-28T06:32:59.833Z,59.58
2022-09-28T06:38:02.632Z,58.84
2022-09-28T06:43:10.529Z,54.81
2022-09-28T06:48:13.667Z,56.01
2022-09-28T06:53:16.467Z,64.08
2022-09-28T06:58:20.495Z,70.88
2022-09-28T07:03:23.603Z,65.96
2022-09-28T07:08:29.070Z,62.22
2022-09-28T07:13:50.723Z,60.38
2022-09-28T07:18:54.230Z,59.36
2022-09-28T07:23:56.926Z,54.13
2022-09-28T07:28:59.643Z,55.75
2022-09-28T07:34:02.708Z,67.23
2022-09-28T07:39:05.640Z,67.04
2022-09-28T07:44:08.440Z,61.24
2022-09-28T07:49:12.484Z,58.25
2022-09-28T07:54:15.373Z,64.29
2022-09-28T07:59:18.944Z,66.54
2022-09-28T08:04:21.796Z,62.42
2022-09-28T08:09:24.497Z,60.57
2022-09-28T08:14:27.815Z,60.22
2022-09-28T08:19:50.477Z,59.62
2022-09-28T08:24:53.277Z,65.73
2022-09-28T08:29:56.117Z,63.39
2022-09-28T08:34:59.904Z,62.06
2022-09-28T08:40:02.719Z,60.28
2022-09-28T08:45:27.122Z,59.09
2022-09-28T08:50:31.864Z,65.80
2022-09-28T08:55:37.929Z,63.04
2022-09-28T09:00:40.643Z,61.84
2022-09-28T09:05:52.353Z,59.97
2022-09-28T09:11:17.884Z,62.86
2022-09-28T09:16:20.616Z,64.43
2022-09-28T09:21:43.070Z,60.20
2022-09-28T09:26:45.951Z,59.01
2022-09-28T09:31:51.418Z,62.67
2022-09-28T09:37:08.557Z,61.13
2022-09-28T09:42:28.352Z,59.70
2022-09-28T09:47:35.558Z,63.90
2022-09-28T09:52:44.447Z,63.16
2022-09-28T09:57:51.809Z,56.60
2022-09-28T10:02:55.270Z,56.38
2022-09-28T10:08:10.623Z,54.34
2022-09-28T10:13:13.836Z,55.67
2022-09-28T10:18:19.401Z,57.86
2022-09-28T10:23:27.460Z,58.76
2022-09-28T10:28:35.757Z,59.34
2022-09-28T10:33:39.171Z,62.12
2022-09-28T10:38:47.815Z,57.16
2022-09-28T10:44:07.345Z,54.54
2022-09-28T10:49:17.890Z,57.00
2022-09-28T10:54:22.026Z,59.90
2022-09-28T10:59:31.389Z,59.54
2022-09-28T11:04:38.787Z,60.53
2022-09-28T11:09:45.149Z,59.86
2022-09-28T11:14:52.998Z,53.16
2022-09-28T11:19:56.925Z,51.72
2022-09-28T11:25:13.240Z,55.18
2022-09-28T11:30:23.492Z,57.98
2022-09-28T11:35:44.543Z,59.99
2022-09-28T11:40:53.541Z,61.36
2022-09-28T11:46:11.519Z,62.61
2022-09-28T11:51:24.897Z,53.98
2022-09-28T11:56:39.374Z,55.76
2022-09-28T12:01:58.955Z,56.90
2022-09-28T12:07:08.631Z,52.41
2022-09-28T12:12:22.602Z,48.58
2022-09-28T12:17:29.823Z,46.19
2022-09-28T12:22:35.167Z,40.74
2022-09-28T12:27:41.342Z,40.04
2022-09-28T12:32:46.813Z,37.80
2022-09-28T12:37:53.909Z,37.95
2022-09-28T12:43:03.572Z,43.47
2022-09-28T12:48:17.330Z,47.43
2022-09-28T12:53:25.996Z,46.75
2022-09-28T12:58:38.199Z,48.41
2022-09-28T13:03:52.464Z,44.99
2022-09-28T13:09:14.254Z,43.53
2022-09-28T13:14:19.879Z,41.46
2022-09-28T13:19:37.836Z,45.50
2022-09-28T13:24:44.529Z,47.28
2022-09-28T13:29:49.380Z,49.36
2022-09-28T13:34:52.695Z,49.26
2022-09-28T13:39:57.037Z,50.97
2022-09-28T13:45:20.211Z,53.21
2022-09-28T13:50:29.358Z,54.95
2022-09-28T13:55:40.865Z,50.92
2022-09-28T14:00:51.448Z,48.25
2022-09-28T14:06:00.803Z,48.85
2022-09-28T14:11:25.130Z,44.45
2022-09-28T14:16:31.290Z,41.32
2022-09-28T14:21:46.378Z,43.62
2022-09-28T14:27:01.364Z,48.84
2022-09-28T14:32:16.662Z,50.98
2022-09-28T14:37:39.839Z,52.27
2022-09-28T14:43:02.508Z,48.80
2022-09-28T14:48:05.341Z,45.38
2022-09-28T14:53:13.699Z,47.79
2022-09-28T14:58:22.585Z,48.88
2022-09-28T15:03:27.301Z,49.36
2022-09-28T15:08:37.712Z,48.76
2022-09-28T15:13:40.926Z,46.59
2022-09-28T15:19:02.589Z,46.05
2022-09-28T15:24:40.363Z,42.62
2022-09-28T15:29:54.257Z,47.41
2022-09-28T15:34:57.288Z,47.91
2022-09-28T15:40:00.674Z,47.03
2022-09-28T15:45:07.955Z,46.64
2022-09-28T15:50:21.639Z,47.89
2022-09-28T15:55:33.042Z,50.80
2022-09-28T16:00:36.048Z,53.15
2022-09-28T16:05:52.776Z,53.98
2022-09-28T16:11:11.147Z,56.42
2022-09-28T16:16:17.068Z,58.47
2022-09-28T16:21:19.924Z,60.48
2022-09-28T16:26:29.343Z,68.09
2022-09-28T16:31:34.752Z,66.53
2022-09-28T16:36:43.689Z,58.55
2022-09-28T16:41:52.216Z,53.89
2022-09-28T16:46:57.177Z,54.94
2022-09-28T16:52:00.591Z,57.39
2022-09-28T16:57:04.726Z,57.23
2022-09-28T17:02:45.016Z,60.47
2022-09-28T17:07:44.985Z,65.88
2022-09-28T17:12:47.950Z,64.31
2022-09-28T17:17:51.466Z,62.08
2022-09-28T17:22:54.276Z,58.48
2022-09-28T17:27:58.133Z,55.82
2022-09-28T17:33:01.814Z,59.93
2022-09-28T17:38:04.519Z,63.94
2022-09-28T17:43:07.626Z,62.44
2022-09-28T17:48:15.960Z,60.12
2022-09-28T17:53:18.655Z,56.62
2022-09-28T17:58:22.687Z,58.12
2022-09-28T18:03:25.900Z,63.89
2022-09-28T18:08:29.414Z,64.18
2022-09-28T18:13:32.117Z,57.66
2022-09-28T18:18:38.500Z,58.12
2022-09-28T18:23:41.201Z,61.47
2022-09-28T18:28:43.902Z,68.72
2022-09-28T18:33:48.446Z,61.86
2022-09-28T18:38:51.231Z,58.97
2022-09-28T18:44:00.623Z,63.16
2022-09-28T18:49:06.164Z,65.88
2022-09-28T18:54:08.972Z,61.15
2022-09-28T18:59:12.630Z,59.03
2022-09-28T19:04:15.904Z,64.10
2022-09-28T19:09:20.519Z,63.12
2022-09-28T19:14:23.298Z,60.47
2022-09-28T19:19:26.051Z,59.93
2022-09-28T19:24:29.263Z,56.24
2022-09-28T19:29:31.963Z,57.22
2022-09-28T19:34:34.762Z,60.05
2022-09-28T19:39:37.462Z,66.94
2022-09-28T19:44:40.162Z,66.32
2022-09-28T19:49:42.803Z,62.52
2022-09-28T19:54:55.899Z,60.26
2022-09-28T20:00:02.705Z,58.11
2022-09-28T20:05:07.611Z,59.94
2022-09-28T20:10:12.040Z,66.18
2022-09-28T20:15:14.888Z,62.69
2022-09-28T20:20:18.412Z,60.97
2022-09-28T20:25:21.829Z,65.58
2022-09-28T20:30:24.525Z,64.80
2022-09-28T20:35:32.902Z,64.58
2022-09-28T20:40:37.960Z,63.15
2022-09-28T20:45:40.924Z,62.82
2022-09-28T20:50:43.617Z,62.96
